AirNav   Pilot Hours Calculator
 
 459 users online  

7GA4 Danville Airpark
Danville, Georgia, USA

GOING TO DANVILLE?


FAA INFORMATION EFFECTIVE 22 APRIL 2021

Location

FAA Identifier: 7GA4
Lat/Long: 32-34-51.5590N 083-16-03.5760W
32-34.859317N 083-16.059600W
32.5809886,-83.2676600
(estimated)
Elevation: 459 ft. / 139.9 m (surveyed)
Variation: 03W (1985)
From city: 2 miles SW of DANVILLE, GA
Time zone: UTC -4 (UTC -5 during Standard Time)
Zip code: 31017

Airport Operations

Airport use: Private use. Permission required prior to landing
Activation date: 03/1980
Control tower: no
ARTCC: ATLANTA CENTER
FSS: MACON FLIGHT SERVICE STATION
Attendance: DAYLIGHT HOURS
Wind indicator: yes
Segmented circle: no

Airport Communications

WX AWOS-3PT at 48A (11 nm S): 120.975 (478-271-5897)
WX AWOS-3 at DBN (14 nm E): 118.425 (478-277-9051)

Nearby radio navigation aids

VOR radial/distance  VOR name  Freq  Var
MCNr108/20.3MACON VORTAC114.2001E
DBNr278/22.2DUBLIN VORTAC113.1005W
VNAr027/24.9VIENNA VORTAC116.5001E

 
NDB name  Hdg/Dist  Freq  Var  ID
CREKE298/14.225104WDB -.. -...
EASTMAN352/27.636604WEZM . --.. --
CULVR193/34.738004WUMB ..- -- -...
MC RAE329/35.028003WMQW -- --.- .--
MONTEZUMA075/39.642604WIZS .. --.. ...

Airport Services

Runway Information

Runway 9/27

Dimensions: 2400 x 60 ft. / 732 x 18 m
Surface: turf
RUNWAY 9  RUNWAY 27
Traffic pattern: leftleft
Obstructions: trees, 300 ft. from runwaypline, 100 ft. from runway

Airport Ownership and Management from official FAA records

Ownership: Privately-owned
Owner: DIANE & BILL NEAL TRUST
323 AIRPORT RD
DANVILLE, GA 31017
Phone 912-962-3609
Manager: B. NEAL
323 AIRPORT RD
DANVILLE, GA 31017
Phone 912-962-3609
ADDITIONAL CONTACT E. NEAL 954-684-0236

Airport Operational Statistics

Aircraft based on the field: 2
Single engine airplanes: 1
Ultralights: 1
    

Additional Remarks

FOR CD CTC ATLANTA APCH AT 678-364-6132, WHEN APCH CLSD CTC ATLANTA ARTCC AT 770-210-7692.

Instrument Procedures

There are no published instrument procedures at 7GA4.

Some nearby airports with instrument procedures:

48A - Cochran Airport (11 nm S)
KDBN - W H 'Bud' Barron Airport (14 nm E)
KWRB - Robins Air Force Base (17 nm W)
KMCN - Middle Georgia Regional Airport (20 nm W)
KMAC - Macon Downtown Airport (21 nm NW)
 
Loc | Ops | Rwys | IFR | FBO | Links
Com | Nav | Svcs | Stats | Notes
Area around 7GA4 (Danville Airpark)
 
Road maps at: MapQuest Bing Google
 
Aerial photo
No photo
 
Sectional chart

 
Airport distance calculator
Flying to Danville Airpark? Find the distance to fly.

From to 7GA4

Sunrise and sunset
Times for 12-May-2021
 Local
(UTC-4)
 Zulu
(UTC)
Morning civil twilight06:1110:11
Sunrise06:3810:38
Sunset20:2100:21
Evening civil twilight20:4800:48

Current date and time
Zulu (UTC)  12-May-2021 06:27:51
Local (UTC-4)  12-May-2021 02:27:51
 
METAR
K48A 
11nm S 
120615Z AUTO 00000KT 10SM BKN120 19/19 A3005 RMK AO2 T01940192
KDBN 
14nm E 
120610Z AUTO 00000KT 7SM SCT008 OVC120 20/18 A3007 RMK AO2
KWRB 
16nm W 
120556Z 00000KT 10SM FEW120 20/20 A3004 RMK AO2A DZE04RAB04E10 SLP173 P0000 60014 T01970197 10214 20197 58007
KMCN 
20nm W 
120615Z AUTO 00000KT 2SM BR FEW006 SCT110 20/19 A3004 RMK AO2 T02000194
TAF
KWRB 
16nm W 
120000Z 1200/1306 VRB06KT 9000 -SHRA SCT035 SCT100 OVC200 QNH2999INS TEMPO 1200/1203 27010G20KT 4800 -TSRA BKN025CB BECMG 1205/1206 VRB06KT 9000 BR OVC035 QNH3000INS BECMG 1208/1209 VRB06KT 9000 BR BKN010 OVC020 QNH2998INS BECMG 1213/1214 VRB06KT 8000 -SHRA BKN007 OVC015 QNH3005INS TEMPO 1214/1217 32010G20KT 4800 -TSRA OVC015CB BECMG 1216/1217 04010G20KT 8000 -SHRA BKN007 OVC015 QNH3006INS BECMG 1217/1218 04010G20KT 9999 NSW SCT007 OVC015 QNH3007INS BECMG 1222/1223 04010G15KT 9999 OVC020 QNH3017
NOTAMs
Click for the latest NOTAMs
NOTAMs are issued by the DoD/FAA and will open in a separate window not controlled by AirNav.

 

 
 

Would you like to see your business listed on this page?

 If your business provides an interesting product or service to pilots, flight crews, aircraft, or users of the Danville Airpark, you should consider listing it here.  To start the listing process, click on the button below
 
Add a business
 

Other Pages about Danville Airpark

Update a link
 
Copyright © AirNav, LLC. All rights reserved. Privacy Policy  Contact